Flight Track Log - Related Links

Times and Time Zones

All times are in EDT time to prevent confusion due to time zone crossing. See the N770NC flight status page for this flight to view local times or setup timezone preferences in your user account.

Time Position Orientation Groundspeed Altitude Reporting Facility
EDT Latitude Longitude Course Direction KTS MPH feet Rate Location/Type
Sun 06:14:05 PM 30.3275 -88.9678 58° Northeast 235 270 2,500  Level Houston Center
Sun 06:15:00 PM 30.7724 -88.8861 12° North  Level FlightAware Approximate
Sun 06:15:07 PM 30.3403 -88.8883 79° East 267 307 5,000  Level Houston Center
Sun 06:16:00 PM 30.8702 -88.8461 20° North  Level FlightAware Approximate
Sun 06:16:09 PM 30.4075 -88.8503 26° Northeast 267 307 7,100  Level Houston Center
Sun 06:17:00 PM 30.9316 -88.7585 55° Northeast  Level FlightAware Approximate
Sun 06:17:11 PM 30.4786 -88.8131 24° Northeast 273 314 9,100  Level Houston Center
Sun 06:18:00 PM 30.9888 -88.6591 58° Northeast  Level FlightAware Approximate
Sun 06:18:13 PM 30.5714 -88.7614 26° Northeast 302 348 10,600  Level Houston Center
Sun 06:19:00 PM 31.0434 -88.5577 58° Northeast  Level FlightAware Approximate
Sun 06:19:15 PM 30.6597 -88.7083 27° Northeast 346 398 12,000  Level Houston Center
Sun 06:20:17 PM 30.7539 -88.6600 24° Northeast 364 419 13,700 1,694 Climbing Houston Center
Sun 06:21:19 PM 30.8564 -88.6194 19° North 383 441 15,500 1,645 Climbing Houston Center
Sun 06:22:21 PM 30.9603 -88.5728 21° North 395 455 17,100 1,500 Climbing Houston Center
Sun 06:23:23 PM 31.0603 -88.5078 29° Northeast 407 468 18,600 1,403 Climbing Houston Center
Sun 06:24:25 PM 31.1439 -88.4136 44° Northeast 417 480 20,000 1,597 Climbing Houston Center
Sun 06:25:27 PM 31.2272 -88.2736 55° Northeast 428 493 21,900 1,403 Climbing Houston Center
Sun 06:26:29 PM 31.3075 -88.1683 48° Northeast 428 493 22,900 1,065 Climbing Houston Center
Sun 06:27:31 PM 31.3825 -88.0517 53° Northeast 445 512 24,100 968 Climbing Houston Center
Sun 06:28:33 PM 31.4583 -87.9344 53° Northeast 448 516 24,900 919 Climbing Houston Center
Sun 06:29:35 PM 31.5344 -87.8144 53° Northeast 457 526 26,000 968 Climbing Houston Center
Sun 06:30:37 PM 31.6117 -87.6928 53° Northeast 464 534 26,900 914 Climbing Houston Center
Sun 06:31:20 PM 31.6747 -87.5917 54° Northeast 456 525 27,600 816 Climbing Atlanta Center
Sun 06:32:20 PM 31.7533 -87.4653 54° Northeast 463 533 28,300 650 Climbing Atlanta Center
Sun 06:33:20 PM 31.8297 -87.3411 54° Northeast 463 533 28,900 350 Climbing Atlanta Center
Sun 06:34:20 PM 31.8978 -87.2214 56° Northeast 469 540 29,000 50 Climbing Atlanta Center
Sun 06:35:20 PM 31.9803 -87.0897 54° Northeast 487 560 29,000  Level Atlanta Center
Sun 06:36:20 PM 32.0606 -86.9575 54° Northeast 492 566 29,000 -50 Level Atlanta Center
Sun 06:37:20 PM 32.1431 -86.8253 54° Northeast 492 566 28,900 -500 Descending Atlanta Center
Sun 06:38:20 PM 32.2381 -86.6811 52° Northeast 497 572 28,000 -850 Descending Atlanta Center
Sun 06:39:20 PM 32.3242 -86.5508 52° Northeast 497 572 27,200 -800 Descending Atlanta Center
Sun 06:40:20 PM 32.4081 -86.4253 52° Northeast 497 572 26,400 -750 Descending Atlanta Center
Sun 06:41:20 PM 32.4711 -86.3039 58° Northeast 486 559 25,700 -800 Descending Atlanta Center
Sun 06:42:20 PM 32.5569 -86.1608 55° Northeast 479 551 24,800 -950 Descending Atlanta Center
Sun 06:43:20 PM 32.6303 -86.0292 56° Northeast 479 551 23,800 -950 Descending Atlanta Center
Sun 06:44:20 PM 32.7011 -85.9025 56° Northeast 479 551 22,900 -950 Descending Atlanta Center
Sun 06:45:20 PM 32.7678 -85.7681 59° Northeast 474 545 21,900 -950 Descending Atlanta Center
Sun 06:46:20 PM 32.8342 -85.6408 58° Northeast 456 525 21,000 -500 Descending Atlanta Center
Sun 06:47:20 PM 32.8964 -85.5108 60° Northeast 451 519 20,900 -400 Descending Atlanta Center
Sun 06:48:20 PM 32.9583 -85.3756 61° Northeast 451 519 20,200 -1,800 Descending Atlanta Center
Sun 06:49:20 PM 33.0244 -85.2406 60° Northeast 456 525 17,300 -2,800 Descending Atlanta Center
Sun 06:50:20 PM 33.1108 -85.1400 44° Northeast 445 512 14,600 -1,700 Descending Atlanta Center
Sun 06:51:20 PM 33.1889 -85.0467 45° Northeast 415 478 13,900 -700 Descending Atlanta Center
Sun 06:52:20 PM 33.2608 -84.9406 51° Northeast 404 465 13,200 -950 Descending Atlanta Center
Sun 06:53:20 PM 33.3283 -84.8344 53° Northeast 399 459 12,000 -600 Descending Atlanta Center
Sun 06:54:20 PM 33.3958 -84.7306 52° Northeast 392 451 12,000  Level Atlanta Center
Sun 06:55:20 PM 33.4692 -84.6339 48° Northeast 390 449 12,000 -50 Level Atlanta Center
Sun 06:56:20 PM 33.5322 -84.5572 45° Northeast 348 400 11,900 -650 Descending Atlanta Center
Sun 06:57:20 PM 33.5556 -84.4750 71° East 243 280 10,700 -1,450 Descending Atlanta Center
Sun 06:58:20 PM 33.5600 -84.3903 86° East 255 293 9,000 -1,650 Descending Atlanta Center
Sun 06:59:20 PM 33.5603 -84.3056 90° East 255 293 7,400 -1,594 Descending Atlanta Center
Sun 07:00:28 PM 33.5667 -84.2167 85° East 229 264 5,600 -1,770 Descending Atlanta TRACON
Sun 07:01:22 PM 33.5833 -84.1667 68° East 257 296 3,800 -1,300 Descending Atlanta TRACON
Sun 07:02:28 PM 33.6167 -84.2333 301° West 225 259 3,000 -500 Descending Atlanta TRACON
Sun 07:03:22 PM 33.6167 -84.3000 270° West 214 246 2,800 -550 Descending Atlanta TRACON
Sun 07:04:28 PM 33.6167 -84.3667 270° West 161 185 1,900 -800 Descending Atlanta TRACON
Sun 07:05:22 PM 33.6167 -84.4167 270° West 157 181 1,200 -778 Descending Atlanta TRACON

Login

Don't have an account? Register now (free) for customized features, flight alerts, and more!